Time;durP1;ratioP1;P1;durP2;ratioP2;P2;SDS_P1;SDS_P2;PMS_P1;PMS_P2;Temp;Humidity;BMP_temperature;BMP_pressure;BME280_temperature;BME280_humidity;BME280_pressure;Samples;Min_cycle;Max_cycle;Signal;HPM_P1;HPM_P2
2023/05/09 00:01:28;;;;;;;6.85;4.78;;;;;;;8.55;57.37;102097.13;5072443;28;20107;-56
2023/05/09 00:03:54;;;;;;;6.82;4.80;;;;;;;8.47;57.77;102093.75;5053935;28;20116;-57
2023/05/09 00:06:20;;;;;;;5.38;4.10;;;;;;;8.46;58.12;102102.53;5062036;28;20027;-57
2023/05/09 00:08:45;;;;;;;8.48;5.20;;;;;;;8.43;57.93;102097.31;5052814;28;20047;-57
2023/05/09 00:11:11;;;;;;;7.22;4.43;;;;;;;8.35;58.39;102109.69;5062476;28;20086;-57
2023/05/09 00:13:37;;;;;;;8.48;4.72;;;;;;;8.30;58.80;102101.00;5057042;28;20060;-57
2023/05/09 00:16:04;;;;;;;8.45;5.63;;;;;;;8.26;59.20;102106.31;5055958;28;20024;-57
2023/05/09 00:18:30;;;;;;;10.05;4.97;;;;;;;8.25;58.83;102107.22;5071336;28;20032;-57
2023/05/09 00:20:56;;;;;;;7.55;4.85;;;;;;;8.25;58.50;102114.22;5075569;28;20032;-57
2023/05/09 00:23:22;;;;;;;7.97;4.47;;;;;;;8.23;59.33;102103.72;5070803;28;20052;-56
2023/05/09 00:25:47;;;;;;;8.65;4.55;;;;;;;8.18;59.95;102112.59;5065551;28;20044;-56
2023/05/09 00:28:12;;;;;;;7.32;4.75;;;;;;;8.15;59.53;102102.94;5070572;28;20354;-57
2023/05/09 00:30:38;;;;;;;10.10;4.45;;;;;;;8.05;60.04;102096.94;5073806;28;20111;-57
2023/05/09 00:33:03;;;;;;;9.05;4.68;;;;;;;8.02;60.06;102104.00;5067542;28;20037;-57
2023/05/09 00:35:31;;;;;;;12.07;4.82;;;;;;;8.04;59.47;102104.84;5068141;28;20089;-57
2023/05/09 00:37:56;;;;;;;10.73;5.15;;;;;;;7.98;59.53;102103.19;5075337;28;20032;-57
2023/05/09 00:40:21;;;;;;;11.65;4.90;;;;;;;7.97;59.86;102097.94;5073420;28;20147;-57
2023/05/09 00:42:47;;;;;;;9.07;5.80;;;;;;;7.87;60.60;102097.19;5071861;28;20137;-58
2023/05/09 00:45:12;;;;;;;8.05;4.97;;;;;;;7.84;60.36;102087.56;5073020;28;20048;-57
2023/05/09 00:47:38;;;;;;;12.85;5.05;;;;;;;7.87;60.40;102087.53;5071311;28;20033;-56
2023/05/09 00:50:04;;;;;;;10.38;5.28;;;;;;;7.81;60.42;102087.59;5073314;28;20112;-57
2023/05/09 00:52:31;;;;;;;10.10;4.60;;;;;;;7.79;60.56;102084.13;5063647;28;20411;-57
2023/05/09 00:54:57;;;;;;;9.80;4.72;;;;;;;7.72;60.82;102082.47;5061251;28;20033;-57
2023/05/09 00:57:22;;;;;;;6.50;4.47;;;;;;;7.68;60.76;102075.50;5070494;28;20047;-57
2023/05/09 00:59:48;;;;;;;7.03;4.85;;;;;;;7.76;60.77;102081.53;5067369;28;20032;-57
2023/05/09 01:02:18;;;;;;;7.32;5.07;;;;;;;7.73;60.47;102068.41;5074231;28;20085;-57
2023/05/09 01:04:45;;;;;;;7.93;4.90;;;;;;;7.67;60.79;102065.88;5069065;28;20024;-58
2023/05/09 01:07:20;;;;;;;8.80;4.93;;;;;;;7.71;60.22;102070.19;5060482;28;20036;-57
2023/05/09 01:09:51;;;;;;;8.45;4.57;;;;;;;7.64;60.98;102073.81;5064154;28;20045;-58
2023/05/09 01:12:45;;;;;;;5.80;4.53;;;;;;;7.61;60.29;102079.09;5062767;28;20072;-57
2023/05/09 01:15:38;;;;;;;8.55;5.63;;;;;;;7.73;59.96;102073.66;5064124;28;20036;-57
2023/05/09 01:18:31;;;;;;;6.53;4.15;;;;;;;7.63;60.19;102058.88;5065239;28;20036;-56
2023/05/09 01:21:02;;;;;;;8.70;4.55;;;;;;;7.67;60.47;102063.25;5067663;28;20036;-58
2023/05/09 01:23:43;;;;;;;8.88;4.15;;;;;;;7.64;59.77;102058.00;5068969;28;20369;-57
2023/05/09 01:26:30;;;;;;;8.00;4.43;;;;;;;7.60;60.45;102066.81;5063519;28;20601;-58
2023/05/09 01:29:32;;;;;;;7.30;4.38;;;;;;;7.55;60.43;102056.34;5054131;28;20037;-57
2023/05/09 01:32:02;;;;;;;11.00;4.75;;;;;;;7.52;60.18;102067.78;5057331;28;20063;-57
2023/05/09 01:34:30;;;;;;;7.78;4.53;;;;;;;7.60;59.58;102061.56;5058893;28;20037;-57
2023/05/09 01:36:59;;;;;;;7.78;4.60;;;;;;;7.56;60.36;102060.72;5060966;28;20031;-56
2023/05/09 01:39:26;;;;;;;7.18;4.47;;;;;;;7.64;59.31;102058.00;5061009;28;20028;-56
2023/05/09 01:41:55;;;;;;;7.63;4.10;;;;;;;7.58;60.30;102056.31;5067483;28;20032;-56
2023/05/09 01:44:22;;;;;;;8.75;4.70;;;;;;;7.57;60.34;102056.31;5064676;28;20033;-57
2023/05/09 01:46:49;;;;;;;11.95;4.07;;;;;;;7.54;59.97;102063.38;5069756;28;20028;-56
2023/05/09 01:49:16;;;;;;;6.50;3.58;;;;;;;7.48;59.67;102058.19;5071881;28;20033;-57
2023/05/09 01:51:42;;;;;;;7.25;4.35;;;;;;;7.54;59.71;102058.09;5065345;28;20035;-56
2023/05/09 01:54:09;;;;;;;6.95;4.18;;;;;;;7.55;59.55;102048.44;5054093;28;20032;-57
2023/05/09 01:56:36;;;;;;;6.03;3.95;;;;;;;7.52;59.66;102059.03;5057766;28;20028;-57
2023/05/09 01:59:05;;;;;;;7.35;4.00;;;;;;;7.52;59.57;102059.03;5053495;28;20037;-57
2023/05/09 02:01:31;;;;;;;6.10;4.18;;;;;;;7.50;59.77;102055.53;5057491;28;20056;-57
2023/05/09 02:03:57;;;;;;;5.95;3.85;;;;;;;7.45;59.97;102058.22;5066641;28;20371;-57
2023/05/09 02:06:23;;;;;;;8.05;3.95;;;;;;;7.47;59.62;102061.72;5060835;28;20055;-57
2023/05/09 02:08:49;;;;;;;6.43;3.70;;;;;;;7.40;59.76;102054.78;5058623;28;20052;-57
2023/05/09 02:11:15;;;;;;;9.23;4.30;;;;;;;7.40;59.75;102044.25;5062667;28;20398;-57
2023/05/09 02:13:40;;;;;;;9.10;3.88;;;;;;;7.44;58.63;102059.13;5064205;28;20029;-57
2023/05/09 02:16:06;;;;;;;9.50;3.97;;;;;;;7.45;58.34;102060.84;5073141;28;20478;-57
2023/05/09 02:18:33;;;;;;;6.15;3.92;;;;;;;7.36;59.47;102053.06;5070588;28;20587;-57
2023/05/09 02:20:59;;;;;;;6.57;4.45;;;;;;;7.32;59.15;102059.25;5073360;28;20070;-57
2023/05/09 02:23:25;;;;;;;6.28;4.30;;;;;;;7.29;59.41;102061.91;5064447;28;20045;-57
2023/05/09 02:25:52;;;;;;;9.32;4.28;;;;;;;7.23;59.78;102062.00;5069825;28;20036;-57
2023/05/09 02:28:20;;;;;;;5.18;4.03;;;;;;;7.16;59.87;102056.78;5056560;28;20174;-56
2023/05/09 02:30:47;;;;;;;5.90;3.92;;;;;;;7.12;59.73;102065.59;5064772;28;20548;-57
2023/05/09 02:33:13;;;;;;;8.27;3.13;;;;;;;7.13;60.48;102062.09;5071387;28;20028;-57
2023/05/09 02:35:41;;;;;;;6.15;3.70;;;;;;;7.10;60.04;102062.13;5058236;28;20040;-57
2023/05/09 02:38:07;;;;;;;10.52;3.80;;;;;;;7.08;59.86;102053.38;5056484;28;20028;-57
2023/05/09 02:40:33;;;;;;;9.52;4.05;;;;;;;7.08;60.01;102056.00;5054525;28;20452;-57
2023/05/09 02:42:58;;;;;;;7.78;4.28;;;;;;;7.11;58.95;102053.34;5052823;28;20047;-57
2023/05/09 02:45:24;;;;;;;8.73;4.20;;;;;;;7.01;59.89;102054.31;5065485;28;20090;-57
2023/05/09 02:47:49;;;;;;;8.93;4.07;;;;;;;6.98;60.14;102047.34;5053142;28;20020;-57
2023/05/09 02:50:15;;;;;;;5.85;3.95;;;;;;;6.94;59.81;102050.00;5061563;28;20040;-57
2023/05/09 02:52:40;;;;;;;6.95;3.67;;;;;;;6.87;60.54;102049.19;5063863;28;20044;-58
2023/05/09 02:55:06;;;;;;;9.77;3.70;;;;;;;6.80;60.12;102047.53;5065240;28;20048;-56
2023/05/09 02:57:32;;;;;;;4.88;3.58;;;;;;;6.73;61.20;102046.69;5059148;28;20067;-57
2023/05/09 02:59:58;;;;;;;6.15;3.92;;;;;;;6.85;59.80;102050.09;5072926;28;20060;-56
2023/05/09 03:02:23;;;;;;;11.35;4.07;;;;;;;6.83;59.83;102049.25;5065980;28;20036;-56
2023/05/09 03:04:48;;;;;;;8.88;4.35;;;;;;;6.78;60.13;102036.13;5072071;28;20407;-56
2023/05/09 03:07:14;;;;;;;6.07;3.47;;;;;;;6.79;60.29;102036.13;5071833;28;20040;-57
2023/05/09 03:09:39;;;;;;;8.73;3.95;;;;;;;6.79;60.13;102041.38;5063231;28;20028;-56
2023/05/09 03:12:05;;;;;;;6.45;4.10;;;;;;;6.71;60.82;102043.22;5054564;28;20115;-56
2023/05/09 03:14:30;;;;;;;7.68;3.95;;;;;;;6.66;60.66;102034.50;5066658;28;20090;-56
2023/05/09 03:16:56;;;;;;;5.20;3.35;;;;;;;6.60;60.07;102030.19;5071060;28;20058;-56
2023/05/09 03:19:21;;;;;;;8.88;3.67;;;;;;;6.50;61.01;102032.88;5068938;28;20032;-56
2023/05/09 03:21:46;;;;;;;6.18;3.53;;;;;;;6.47;61.63;102032.91;5060505;28;20384;-57
2023/05/09 03:24:12;;;;;;;5.45;4.10;;;;;;;6.47;61.07;102032.91;5052409;28;20057;-56
2023/05/09 03:26:37;;;;;;;6.78;4.03;;;;;;;6.48;61.00;102029.41;5057489;28;20029;-56
2023/05/09 03:29:03;;;;;;;14.45;3.78;;;;;;;6.39;61.70;102028.59;5069873;28;20115;-57
2023/05/09 03:31:28;;;;;;;8.55;3.78;;;;;;;6.47;61.22;102038.16;5067788;28;20068;-57
2023/05/09 03:33:54;;;;;;;5.20;3.72;;;;;;;6.37;61.89;102027.72;5073378;28;20389;-57
2023/05/09 03:36:19;;;;;;;7.07;3.67;;;;;;;6.35;62.22;102029.50;5067911;28;20017;-57
2023/05/09 03:38:45;;;;;;;9.65;4.28;;;;;;;6.40;60.92;102021.59;5064970;28;20040;-58
2023/05/09 03:41:12;;;;;;;6.15;3.75;;;;;;;6.34;61.28;102016.38;5072055;28;20025;-57
2023/05/09 03:43:37;;;;;;;6.70;3.97;;;;;;;6.33;61.83;102010.25;5051999;28;20083;-58
2023/05/09 03:46:03;;;;;;;8.95;4.43;;;;;;;6.33;61.21;102015.50;5061098;28;20033;-57
2023/05/09 03:48:28;;;;;;;8.80;4.75;;;;;;;6.31;61.25;102017.28;5056278;28;20028;-58
2023/05/09 03:50:54;;;;;;;7.32;4.53;;;;;;;6.26;61.33;102013.81;5075428;28;20048;-57
2023/05/09 03:53:19;;;;;;;8.20;4.07;;;;;;;6.34;60.52;102022.50;5073056;28;20042;-57
2023/05/09 03:55:45;;;;;;;10.23;3.63;;;;;;;6.30;61.13;102015.53;5058502;28;20060;-57
2023/05/09 03:58:11;;;;;;;8.77;5.22;;;;;;;6.29;61.09;102019.03;5061834;28;20415;-57
2023/05/09 04:00:37;;;;;;;6.65;4.25;;;;;;;6.30;60.99;102014.66;5069389;28;20036;-57
2023/05/09 04:03:03;;;;;;;5.82;3.70;;;;;;;6.33;61.69;102020.75;5056061;28;20025;-57
2023/05/09 04:05:29;;;;;;;9.55;4.05;;;;;;;6.38;60.59;102013.72;5061843;28;20021;-58
2023/05/09 04:07:54;;;;;;;13.50;4.65;;;;;;;6.39;61.40;102022.44;5057647;28;20033;-57
2023/05/09 04:10:19;;;;;;;5.97;3.70;;;;;;;6.39;60.86;102015.47;5070489;28;20032;-57
2023/05/09 04:12:45;;;;;;;8.13;4.00;;;;;;;6.38;61.55;102018.97;5075912;28;20562;-57
2023/05/09 04:15:10;;;;;;;10.93;4.30;;;;;;;6.46;60.71;102020.66;5076084;28;20114;-56
2023/05/09 04:17:35;;;;;;;5.30;3.30;;;;;;;6.42;60.93;102020.69;5068994;28;20021;-57
2023/05/09 04:20:02;;;;;;;8.32;4.20;;;;;;;6.50;60.48;102014.50;5064443;28;20036;-57
2023/05/09 04:22:27;;;;;;;8.23;4.10;;;;;;;6.46;60.28;102026.78;5066842;28;20081;-57
2023/05/09 04:24:53;;;;;;;10.27;4.25;;;;;;;6.50;59.92;102023.25;5064838;28;20040;-57
2023/05/09 04:27:18;;;;;;;7.88;3.55;;;;;;;6.49;59.86;102021.53;5058433;28;20486;-57
2023/05/09 04:29:44;;;;;;;8.05;3.60;;;;;;;6.52;59.64;102020.59;5073796;28;20120;-56
2023/05/09 04:32:09;;;;;;;6.95;4.57;;;;;;;6.59;60.34;102014.44;5068309;28;20099;-57
2023/05/09 04:34:35;;;;;;;5.07;3.42;;;;;;;6.63;60.28;102016.13;5062986;28;20039;-57
2023/05/09 04:37:00;;;;;;;10.45;3.47;;;;;;;6.69;59.05;102005.56;5055291;28;20028;-57
2023/05/09 04:39:26;;;;;;;7.25;4.07;;;;;;;6.77;59.14;102016.88;5056035;28;20040;-57
2023/05/09 04:41:51;;;;;;;9.57;4.55;;;;;;;6.89;58.40;102020.28;5065050;28;20025;-58
2023/05/09 04:44:17;;;;;;;7.03;5.00;;;;;;;6.85;59.10;102013.28;5067463;28;20324;-57
2023/05/09 04:46:42;;;;;;;6.47;4.20;;;;;;;6.91;58.70;102018.50;5073135;28;20020;-57
2023/05/09 04:49:08;;;;;;;6.07;3.90;;;;;;;6.97;58.95;102016.66;5068522;28;20021;-57
2023/05/09 04:51:33;;;;;;;6.28;3.72;;;;;;;7.00;58.82;102013.16;5054963;28;20033;-57
2023/05/09 04:53:59;;;;;;;9.95;4.32;;;;;;;7.06;58.82;102020.09;5062454;28;20352;-57
2023/05/09 04:56:25;;;;;;;6.63;3.80;;;;;;;7.06;58.98;102007.84;5070513;28;20449;-56
2023/05/09 04:58:51;;;;;;;8.35;3.88;;;;;;;7.10;58.54;102009.53;5067607;28;20028;-57
2023/05/09 05:01:17;;;;;;;8.40;3.42;;;;;;;7.13;59.44;102006.88;5074231;28;20068;-57
2023/05/09 05:03:42;;;;;;;9.38;3.97;;;;;;;7.19;58.10;102010.31;5070337;28;20606;-58
2023/05/09 05:06:08;;;;;;;6.15;3.67;;;;;;;7.27;57.84;102005.84;5064384;28;20032;-57
2023/05/09 05:08:33;;;;;;;9.10;4.38;;;;;;;7.29;58.44;102004.03;5053871;28;20052;-58
2023/05/09 05:10:58;;;;;;;9.15;4.30;;;;;;;7.32;57.46;102004.00;5064495;28;20032;-58
2023/05/09 05:13:24;;;;;;;10.57;4.13;;;;;;;7.30;57.76;102000.53;5062156;28;20033;-57
2023/05/09 05:15:49;;;;;;;5.90;3.58;;;;;;;7.34;57.72;101997.00;5063460;28;20108;-57
2023/05/09 05:18:15;;;;;;;8.52;3.55;;;;;;;7.40;58.08;101996.91;5060885;28;20029;-57
2023/05/09 05:20:41;;;;;;;6.15;3.65;;;;;;;7.45;57.53;101992.44;5054813;28;20029;-57
2023/05/09 05:23:07;;;;;;;8.15;3.40;;;;;;;7.48;57.97;101995.03;5054038;28;20440;-58
2023/05/09 05:25:32;;;;;;;11.48;4.10;;;;;;;7.59;57.55;102001.94;5060759;28;20046;-59
2023/05/09 05:27:57;;;;;;;7.95;3.97;;;;;;;7.64;57.31;101994.84;5053842;28;20090;-57
2023/05/09 05:30:23;;;;;;;7.28;3.55;;;;;;;7.65;57.40;101986.03;5055193;28;20017;-57
2023/05/09 05:32:48;;;;;;;6.68;3.83;;;;;;;7.72;57.26;101993.84;5056078;28;20040;-57
2023/05/09 05:35:14;;;;;;;8.18;3.92;;;;;;;7.83;56.85;101984.91;5072942;28;20059;-57
2023/05/09 05:37:40;;;;;;;12.07;4.70;;;;;;;7.86;56.26;101980.50;5067535;28;20024;-57
2023/05/09 05:40:06;;;;;;;8.95;3.97;;;;;;;7.92;56.74;101978.66;5054321;28;20036;-57
2023/05/09 05:42:32;;;;;;;12.65;4.95;;;;;;;7.97;57.06;101971.56;5059506;28;20078;-57
2023/05/09 05:45:03;;;;;;;6.82;3.95;;;;;;;8.07;56.01;101966.13;5062593;28;20087;-57
2023/05/09 05:47:33;;;;;;;7.93;3.97;;;;;;;8.15;55.76;101970.41;5063047;28;20039;-57
2023/05/09 05:50:05;;;;;;;7.30;3.40;;;;;;;8.17;56.40;101969.47;5061200;28;20039;-57
2023/05/09 05:52:31;;;;;;;6.07;3.28;;;;;;;8.31;55.77;101960.50;5058445;28;20732;-57
2023/05/09 05:54:57;;;;;;;7.05;4.13;;;;;;;8.33;56.28;101959.56;5070331;28;20033;-57
2023/05/09 05:57:22;;;;;;;12.70;4.72;;;;;;;8.45;55.27;101956.75;5062331;28;20056;-58
2023/05/09 05:59:49;;;;;;;8.65;4.75;;;;;;;8.55;55.17;101954.81;5057875;28;20094;-57
2023/05/09 06:02:15;;;;;;;8.80;4.57;;;;;;;8.61;54.47;101959.09;5058299;28;20448;-57
2023/05/09 06:04:41;;;;;;;12.07;4.03;;;;;;;8.78;53.97;101950.91;5072113;28;20361;-57
2023/05/09 06:07:06;;;;;;;7.45;3.53;;;;;;;8.87;53.77;101948.06;5072011;28;20028;-57
2023/05/09 06:09:31;;;;;;;6.57;3.40;;;;;;;8.97;54.38;101944.38;5055998;28;20040;-59
2023/05/09 06:11:57;;;;;;;4.90;3.15;;;;;;;9.08;54.05;101938.00;5058584;28;20033;-58
2023/05/09 06:14:22;;;;;;;6.00;3.30;;;;;;;9.15;52.80;101929.03;5060815;28;20032;-57
2023/05/09 06:16:48;;;;;;;6.22;3.30;;;;;;;9.22;52.65;101927.16;5059564;28;20082;-58
2023/05/09 06:19:13;;;;;;;5.32;3.53;;;;;;;9.32;52.19;101924.28;5056047;28;20101;-57
2023/05/09 06:21:38;;;;;;;6.18;3.72;;;;;;;9.48;52.38;101921.28;5066883;28;20086;-57
2023/05/09 06:24:04;;;;;;;8.15;3.13;;;;;;;9.58;51.87;101912.28;5053348;28;20140;-57
2023/05/09 06:26:30;;;;;;;8.48;4.03;;;;;;;9.68;51.67;101913.81;5057255;28;20024;-57
2023/05/09 06:28:55;;;;;;;8.77;3.55;;;;;;;9.71;51.00;101919.03;5062155;28;20093;-57
2023/05/09 06:31:20;;;;;;;7.25;4.15;;;;;;;9.77;50.48;101915.34;5066663;28;20055;-57
2023/05/09 06:33:46;;;;;;;9.30;3.28;;;;;;;9.80;51.09;101911.78;5066656;28;20027;-57
2023/05/09 06:36:11;;;;;;;9.38;3.47;;;;;;;9.95;51.28;101908.75;5073193;28;20033;-58
2023/05/09 06:38:36;;;;;;;6.30;3.50;;;;;;;10.09;50.38;101909.28;5057198;28;20373;-57
2023/05/09 06:41:02;;;;;;;9.88;3.63;;;;;;;10.19;49.70;101911.72;5053953;28;20043;-57
2023/05/09 06:43:27;;;;;;;6.45;3.83;;;;;;;10.22;49.73;101903.69;5056396;28;20036;-58
2023/05/09 06:45:52;;;;;;;6.60;3.83;;;;;;;10.34;49.98;101895.47;5055408;28;20128;-58
2023/05/09 06:48:18;;;;;;;6.95;3.25;;;;;;;10.43;49.66;101897.03;5058049;28;20124;-57
2023/05/09 06:50:43;;;;;;;11.40;4.05;;;;;;;10.57;49.39;101899.28;5066097;28;20024;-58
2023/05/09 06:53:09;;;;;;;7.80;3.33;;;;;;;10.55;49.14;101891.38;5060263;28;20191;-57
2023/05/09 06:55:34;;;;;;;8.95;3.22;;;;;;;10.71;48.45;101893.63;5064866;28;20028;-59
2023/05/09 06:58:00;;;;;;;9.15;3.38;;;;;;;10.88;48.59;101885.19;5066746;28;20040;-57
2023/05/09 07:00:25;;;;;;;6.50;3.97;;;;;;;11.03;48.66;101879.44;5068277;28;20028;-57
2023/05/09 07:02:51;;;;;;;8.02;3.40;;;;;;;11.12;48.52;101887.13;5061410;28;20056;-57
2023/05/09 07:05:16;;;;;;;6.25;3.20;;;;;;;11.24;47.98;101879.72;5061772;28;20667;-57
2023/05/09 07:07:41;;;;;;;6.82;3.28;;;;;;;11.27;46.90;101879.63;5068108;28;20149;-57
2023/05/09 07:10:08;;;;;;;6.93;3.20;;;;;;;11.31;46.97;101876.84;5061537;28;20021;-58
2023/05/09 07:12:34;;;;;;;6.32;2.97;;;;;;;11.42;47.73;101884.44;5060503;28;20108;-57
2023/05/09 07:14:59;;;;;;;7.95;3.38;;;;;;;11.41;46.49;101889.78;5057068;28;20732;-58
2023/05/09 07:17:25;;;;;;;9.80;2.95;;;;;;;11.41;46.06;101884.50;5063268;28;20757;-58
2023/05/09 07:19:50;;;;;;;8.77;3.03;;;;;;;11.54;46.34;101876.13;5054838;28;20029;-59
2023/05/09 07:22:16;;;;;;;9.98;3.47;;;;;;;11.66;46.31;101888.09;5059568;28;20502;-61
2023/05/09 07:24:43;;;;;;;4.78;2.25;;;;;;;11.79;46.57;101878.00;5068704;28;20048;-59
2023/05/09 07:27:08;;;;;;;11.35;2.92;;;;;;;11.94;46.09;101882.78;5070788;28;20036;-59
2023/05/09 07:29:34;;;;;;;5.97;3.15;;;;;;;11.88;45.48;101883.00;5064579;28;20040;-58
2023/05/09 07:31:59;;;;;;;6.15;3.78;;;;;;;11.84;46.06;101873.41;5058390;28;20033;-58
2023/05/09 07:34:25;;;;;;;7.32;3.42;;;;;;;11.97;45.48;101879.19;5067924;28;20036;-57
2023/05/09 07:36:50;;;;;;;7.00;3.25;;;;;;;12.12;45.43;101869.84;5071432;28;20036;-58
2023/05/09 07:39:15;;;;;;;5.68;3.05;;;;;;;12.29;45.89;101872.78;5073331;28;20039;-57
2023/05/09 07:41:41;;;;;;;9.00;3.40;;;;;;;12.35;45.79;101868.19;5063781;28;20040;-58
2023/05/09 07:44:08;;;;;;;7.68;2.55;;;;;;;12.41;45.24;101860.03;5064085;28;20490;-58
2023/05/09 07:46:36;;;;;;;7.75;3.25;;;;;;;12.57;45.73;101849.72;5071741;28;20075;-57
2023/05/09 07:49:01;;;;;;;5.35;3.00;;;;;;;12.70;44.44;101845.72;5064511;28;20025;-58
2023/05/09 07:51:26;;;;;;;5.65;3.60;;;;;;;12.82;44.03;101844.38;5060942;28;20133;-56
2023/05/09 07:53:54;;;;;;;7.07;3.60;;;;;;;12.75;43.51;101842.84;5078465;28;20555;-56
2023/05/09 07:56:20;;;;;;;7.70;3.13;;;;;;;12.94;44.12;101843.91;5070621;28;20078;-60
2023/05/09 07:58:45;;;;;;;6.75;3.78;;;;;;;12.91;42.94;101833.38;5062102;28;20040;-59
2023/05/09 08:01:10;;;;;;;4.70;2.67;;;;;;;12.95;43.17;101840.31;5059419;28;20040;-59
2023/05/09 08:03:36;;;;;;;7.32;3.20;;;;;;;13.11;43.23;101829.09;5066641;28;20086;-58
2023/05/09 08:06:01;;;;;;;5.45;2.95;;;;;;;13.25;42.76;101826.78;5071448;28;20013;-58
2023/05/09 08:08:27;;;;;;;12.00;3.83;;;;;;;13.30;42.85;101819.50;5075705;28;20522;-58
2023/05/09 08:10:52;;;;;;;8.20;3.08;;;;;;;13.33;43.14;101816.75;5074202;28;20105;-59
2023/05/09 08:13:18;;;;;;;7.68;3.05;;;;;;;13.52;42.49;101813.38;5069470;28;20119;-57
2023/05/09 08:15:43;;;;;;;5.38;2.97;;;;;;;13.63;42.50;101813.75;5073926;28;20029;-58
2023/05/09 08:18:09;;;;;;;8.90;2.88;;;;;;;13.60;41.83;101821.88;5073831;28;20051;-58
2023/05/09 08:20:35;;;;;;;5.63;3.30;;;;;;;13.49;41.55;101817.00;5071331;28;20028;-58
2023/05/09 08:23:00;;;;;;;6.65;2.95;;;;;;;13.76;41.34;101812.34;5059652;28;20060;-58
2023/05/09 08:25:25;;;;;;;7.63;3.17;;;;;;;13.75;41.03;101815.91;5061845;28;20036;-57
2023/05/09 08:27:51;;;;;;;5.82;2.95;;;;;;;13.83;41.13;101802.31;5067063;28;20052;-58
2023/05/09 08:30:16;;;;;;;6.22;3.10;;;;;;;13.73;41.17;101803.59;5061516;28;20582;-57
2023/05/09 08:32:42;;;;;;;7.35;2.95;;;;;;;13.90;41.17;101797.59;5059379;28;20058;-58
2023/05/09 08:35:07;;;;;;;7.60;3.08;;;;;;;13.95;40.98;101796.44;5066125;28;20514;-57
2023/05/09 08:37:35;;;;;;;7.28;3.90;;;;;;;14.04;41.06;101789.88;5060829;28;20028;-58
2023/05/09 08:40:00;;;;;;;6.45;2.90;;;;;;;14.11;40.19;101791.34;5061086;28;20043;-56
2023/05/09 08:42:28;;;;;;;12.93;2.85;;;;;;;14.22;39.66;101790.00;5066038;28;20433;-58
2023/05/09 08:44:53;;;;;;;6.28;2.80;;;;;;;14.40;39.50;101794.50;5067694;28;20024;-57
2023/05/09 08:47:20;;;;;;;5.07;3.08;;;;;;;14.41;39.45;101792.69;5065086;28;20081;-58
2023/05/09 08:49:46;;;;;;;8.02;3.28;;;;;;;14.41;38.34;101787.38;5066043;28;20413;-57
2023/05/09 08:52:13;;;;;;;12.45;3.03;;;;;;;14.45;38.41;101773.88;5069129;28;20071;-58
2023/05/09 08:54:39;;;;;;;10.85;3.20;;;;;;;14.34;38.22;101781.47;5063252;28;20029;-57
2023/05/09 08:57:04;;;;;;;4.93;2.45;;;;;;;14.50;38.31;101777.19;5064255;28;20032;-56
2023/05/09 08:59:33;;;;;;;7.47;3.42;;;;;;;14.72;38.31;101764.72;5061083;28;20091;-57
2023/05/09 09:01:59;;;;;;;11.25;2.80;;;;;;;14.72;37.69;101765.56;5060651;28;20032;-58
2023/05/09 09:04:24;;;;;;;7.45;3.20;;;;;;;14.78;37.45;101765.28;5059204;28;20028;-57
2023/05/09 09:06:52;;;;;;;4.55;2.55;;;;;;;14.89;37.61;101759.44;5060249;28;20433;-58
2023/05/09 09:09:19;;;;;;;6.15;2.42;;;;;;;15.07;35.98;101763.00;5065200;28;20025;-56
2023/05/09 09:11:46;;;;;;;4.55;2.60;;;;;;;15.12;34.92;101760.13;5066796;28;20024;-58
2023/05/09 09:14:19;;;;;;;3.88;2.17;;;;;;;15.43;35.58;101754.16;5068827;28;20028;-56
2023/05/09 09:16:47;;;;;;;4.82;2.28;;;;;;;15.44;34.23;101763.03;5065779;28;20044;-56
2023/05/09 09:19:16;;;;;;;5.90;2.40;;;;;;;15.38;33.91;101757.06;5064505;28;20089;-57
2023/05/09 09:21:45;;;;;;;6.95;2.53;;;;;;;15.33;33.72;101750.22;5060953;28;20091;-58
2023/05/09 09:24:18;;;;;;;4.82;2.92;;;;;;;15.40;34.39;101751.66;5062282;28;20467;-57
2023/05/09 09:26:48;;;;;;;7.20;2.60;;;;;;;15.54;34.84;101745.63;5060320;28;20033;-59
2023/05/09 09:29:14;;;;;;;6.53;2.80;;;;;;;15.66;33.99;101741.47;5064079;28;20844;-58
2023/05/09 09:31:44;;;;;;;6.43;2.90;;;;;;;15.70;34.36;101745.72;5067122;28;20043;-59
2023/05/09 09:34:11;;;;;;;4.90;2.40;;;;;;;15.68;34.28;101739.59;5064562;28;20071;-57
2023/05/09 09:36:36;;;;;;;7.18;2.80;;;;;;;15.87;35.38;101739.53;5069849;28;20032;-58
2023/05/09 09:39:03;;;;;;;5.97;2.38;;;;;;;15.90;34.95;101724.22;5064651;28;20091;-56
2023/05/09 09:41:37;;;;;;;7.93;2.75;;;;;;;15.98;33.40;101720.31;5066074;28;20043;-58
2023/05/09 09:44:08;;;;;;;5.40;2.20;;;;;;;15.76;33.51;101722.28;5063638;28;20043;-57
2023/05/09 09:46:59;;;;;;;6.10;2.67;;;;;;;16.26;33.53;101712.53;5067068;28;20025;-58
2023/05/09 09:49:26;;;;;;;5.85;2.70;;;;;;;16.05;32.60;101721.69;5076971;28;20115;-58
2023/05/09 09:51:52;;;;;;;4.25;2.30;;;;;;;16.10;32.98;101709.84;5072579;28;20040;-58
2023/05/09 09:54:18;;;;;;;6.28;2.55;;;;;;;16.33;33.00;101697.09;5067330;28;20028;-59
2023/05/09 09:56:48;;;;;;;7.10;3.00;;;;;;;16.56;32.00;101698.47;5065270;28;20035;-56
2023/05/09 09:59:17;;;;;;;5.20;2.70;;;;;;;16.33;32.86;101705.94;5065443;28;20397;-59
2023/05/09 10:01:59;;;;;;;8.27;2.33;;;;;;;16.69;32.23;101696.81;5065897;28;20384;-58
2023/05/09 10:04:28;;;;;;;3.83;2.35;;;;;;;16.60;31.35;101694.66;5059206;28;20383;-58
2023/05/09 10:06:58;;;;;;;5.32;2.42;;;;;;;16.83;31.50;101697.84;5056349;28;20032;-58
2023/05/09 10:09:25;;;;;;;4.43;2.45;;;;;;;17.03;31.48;101692.28;5064109;28;20028;-57
2023/05/09 10:11:52;;;;;;;6.88;2.10;;;;;;;16.95;31.56;101698.97;5069211;28;20043;-57
2023/05/09 10:14:23;;;;;;;5.45;2.50;;;;;;;17.06;31.10;101689.38;5068994;28;20039;-58
2023/05/09 10:16:50;;;;;;;7.68;2.60;;;;;;;17.20;31.44;101683.25;5066468;28;20113;-58
2023/05/09 10:19:20;;;;;;;5.72;2.55;;;;;;;17.33;30.43;101677.19;5069000;28;20028;-57
2023/05/09 10:21:50;;;;;;;4.85;2.70;;;;;;;17.34;30.26;101670.88;5067625;28;20172;-58
2023/05/09 10:24:20;;;;;;;7.40;2.60;;;;;;;17.50;30.07;101670.84;5064609;28;20461;-57
2023/05/09 10:26:48;;;;;;;4.07;2.72;;;;;;;17.24;29.71;101682.09;5063289;28;20057;-57
2023/05/09 10:29:21;;;;;;;3.40;2.38;;;;;;;17.31;29.92;101666.59;5068360;28;20044;-58
2023/05/09 10:31:53;;;;;;;3.40;2.30;;;;;;;17.55;29.60;101674.09;5060322;28;20044;-58
2023/05/09 10:34:21;;;;;;;5.20;2.38;;;;;;;17.57;28.87;101656.13;5067925;28;20431;-58
2023/05/09 10:36:47;;;;;;;9.43;2.35;;;;;;;17.71;29.86;101668.66;5062164;28;20523;-58
2023/05/09 10:39:13;;;;;;;4.75;2.50;;;;;;;17.68;29.29;101667.03;5065512;28;20024;-56
2023/05/09 10:41:39;;;;;;;7.50;2.80;;;;;;;17.60;29.96;101661.28;5067336;28;20530;-56
2023/05/09 10:44:05;;;;;;;4.63;2.47;;;;;;;17.96;29.25;101636.81;5068496;28;20043;-58
2023/05/09 10:46:31;;;;;;;5.82;2.70;;;;;;;18.69;29.26;101645.56;5071628;28;20094;-56
2023/05/09 10:48:57;;;;;;;5.40;2.50;;;;;;;19.17;27.73;101640.56;5066285;28;20067;-56
2023/05/09 10:51:23;;;;;;;6.55;2.22;;;;;;;19.43;27.06;101637.94;5070721;28;20024;-56
2023/05/09 10:53:50;;;;;;;5.70;2.35;;;;;;;19.97;25.93;101621.63;5066727;28;20078;-56
2023/05/09 10:56:27;;;;;;;4.53;2.40;;;;;;;20.87;24.81;101633.91;5065065;28;20041;-54
2023/05/09 10:58:53;;;;;;;5.35;2.03;;;;;;;21.13;23.84;101628.41;5069116;28;20052;-58
2023/05/09 11:01:37;;;;;;;5.45;1.95;;;;;;;21.72;23.47;101614.81;5058397;28;20042;-57
2023/05/09 11:04:15;;;;;;;3.47;2.08;;;;;;;22.39;23.36;101613.06;5065163;28;20032;-56
2023/05/09 11:06:40;;;;;;;12.27;2.20;;;;;;;22.67;22.74;101602.72;5062521;28;20028;-55
2023/05/09 11:09:32;;;;;;;4.85;1.75;;;;;;;23.22;22.21;101600.75;5064033;28;20113;-56
2023/05/09 11:12:03;;;;;;;5.03;2.03;;;;;;;23.64;22.16;101595.31;5067057;28;20159;-56
2023/05/09 11:14:32;;;;;;;9.55;2.13;;;;;;;23.08;22.40;101599.25;5059713;28;20124;-57
2023/05/09 11:17:26;;;;;;;9.32;2.30;;;;;;;23.22;21.61;101584.56;5067665;28;20024;-56
2023/05/09 11:19:51;;;;;;;7.72;2.50;;;;;;;23.64;21.61;101567.47;5068436;28;20020;-55
2023/05/09 11:22:23;;;;;;;4.45;2.30;;;;;;;24.42;20.16;101566.84;5061585;28;20098;-59
2023/05/09 11:24:50;;;;;;;5.47;2.60;;;;;;;24.90;20.51;101576.84;5059057;28;20097;-57
2023/05/09 11:27:23;;;;;;;4.93;2.22;;;;;;;24.15;20.24;101568.38;5065267;28;20028;-56
2023/05/09 11:29:55;;;;;;;5.05;2.30;;;;;;;24.38;20.01;101556.31;5065910;28;20035;-57